sensor_id;sensor_type;location;lat;lon;timestamp;P1;durP1;ratioP1;P2;durP2;ratioP2
74042;SDS011;62384;53.600;10.040;2023-03-03T00:01:15;42.22;;;15.40;;
74042;SDS011;62384;53.600;10.040;2023-03-03T00:03:41;42.15;;;15.07;;
74042;SDS011;62384;53.600;10.040;2023-03-03T00:06:08;36.40;;;14.18;;
74042;SDS011;62384;53.600;10.040;2023-03-03T00:08:35;45.78;;;17.20;;
74042;SDS011;62384;53.600;10.040;2023-03-03T00:11:01;36.42;;;15.38;;
74042;SDS011;62384;53.600;10.040;2023-03-03T00:13:29;41.53;;;15.75;;
74042;SDS011;62384;53.600;10.040;2023-03-03T00:16:04;43.60;;;15.40;;
74042;SDS011;62384;53.600;10.040;2023-03-03T00:18:36;48.65;;;15.25;;
74042;SDS011;62384;53.600;10.040;2023-03-03T00:21:14;43.13;;;14.65;;
74042;SDS011;62384;53.600;10.040;2023-03-03T00:26:47;50.13;;;16.95;;
74042;SDS011;62384;53.600;10.040;2023-03-03T00:31:52;64.88;;;15.75;;
74042;SDS011;62384;53.600;10.040;2023-03-03T00:36:42;50.83;;;17.33;;
74042;SDS011;62384;53.600;10.040;2023-03-03T00:39:25;60.42;;;16.17;;
74042;SDS011;62384;53.600;10.040;2023-03-03T00:41:54;70.43;;;17.33;;
74042;SDS011;62384;53.600;10.040;2023-03-03T00:47:22;70.40;;;16.13;;
74042;SDS011;62384;53.600;10.040;2023-03-03T00:49:51;49.42;;;16.48;;
74042;SDS011;62384;53.600;10.040;2023-03-03T00:52:18;70.30;;;15.30;;
74042;SDS011;62384;53.600;10.040;2023-03-03T00:54:44;53.95;;;15.90;;
74042;SDS011;62384;53.600;10.040;2023-03-03T00:57:11;63.00;;;15.43;;
74042;SDS011;62384;53.600;10.040;2023-03-03T00:59:38;58.92;;;16.05;;
74042;SDS011;62384;53.600;10.040;2023-03-03T01:02:03;32.08;;;13.05;;
74042;SDS011;62384;53.600;10.040;2023-03-03T01:04:29;41.92;;;14.40;;
74042;SDS011;62384;53.600;10.040;2023-03-03T01:06:54;53.60;;;14.63;;
74042;SDS011;62384;53.600;10.040;2023-03-03T01:09:19;48.40;;;15.02;;
74042;SDS011;62384;53.600;10.040;2023-03-03T01:11:45;47.90;;;15.10;;
74042;SDS011;62384;53.600;10.040;2023-03-03T01:14:10;68.40;;;16.60;;
74042;SDS011;62384;53.600;10.040;2023-03-03T01:16:36;56.88;;;16.23;;
74042;SDS011;62384;53.600;10.040;2023-03-03T01:19:01;52.67;;;15.30;;
74042;SDS011;62384;53.600;10.040;2023-03-03T01:21:27;37.97;;;14.05;;
74042;SDS011;62384;53.600;10.040;2023-03-03T01:23:52;38.05;;;13.88;;
74042;SDS011;62384;53.600;10.040;2023-03-03T01:26:18;60.40;;;16.80;;
74042;SDS011;62384;53.600;10.040;2023-03-03T01:28:43;46.30;;;14.73;;
74042;SDS011;62384;53.600;10.040;2023-03-03T01:31:08;42.35;;;14.38;;
74042;SDS011;62384;53.600;10.040;2023-03-03T01:33:34;68.00;;;15.57;;
74042;SDS011;62384;53.600;10.040;2023-03-03T01:36:00;62.85;;;14.82;;
74042;SDS011;62384;53.600;10.040;2023-03-03T01:38:27;74.57;;;16.63;;
74042;SDS011;62384;53.600;10.040;2023-03-03T01:40:56;43.53;;;13.80;;
74042;SDS011;62384;53.600;10.040;2023-03-03T01:43:25;84.90;;;14.63;;
74042;SDS011;62384;53.600;10.040;2023-03-03T01:48:33;71.95;;;15.30;;
74042;SDS011;62384;53.600;10.040;2023-03-03T01:54:03;52.65;;;14.63;;
74042;SDS011;62384;53.600;10.040;2023-03-03T01:56:33;49.40;;;15.68;;
74042;SDS011;62384;53.600;10.040;2023-03-03T01:59:13;54.47;;;15.70;;
74042;SDS011;62384;53.600;10.040;2023-03-03T02:01:44;54.92;;;14.38;;
74042;SDS011;62384;53.600;10.040;2023-03-03T02:04:12;64.93;;;14.15;;
74042;SDS011;62384;53.600;10.040;2023-03-03T02:06:38;63.40;;;15.20;;
74042;SDS011;62384;53.600;10.040;2023-03-03T02:09:25;58.05;;;14.18;;
74042;SDS011;62384;53.600;10.040;2023-03-03T02:11:57;80.07;;;17.08;;
74042;SDS011;62384;53.600;10.040;2023-03-03T02:14:27;82.95;;;14.85;;
74042;SDS011;62384;53.600;10.040;2023-03-03T02:16:52;66.75;;;15.27;;
74042;SDS011;62384;53.600;10.040;2023-03-03T02:19:25;76.57;;;15.98;;
74042;SDS011;62384;53.600;10.040;2023-03-03T02:22:01;89.63;;;19.05;;
74042;SDS011;62384;53.600;10.040;2023-03-03T02:24:28;66.35;;;15.18;;
74042;SDS011;62384;53.600;10.040;2023-03-03T02:26:59;44.58;;;13.38;;
74042;SDS011;62384;53.600;10.040;2023-03-03T02:29:24;50.95;;;16.05;;
74042;SDS011;62384;53.600;10.040;2023-03-03T02:31:50;52.42;;;15.27;;
74042;SDS011;62384;53.600;10.040;2023-03-03T02:34:15;59.70;;;15.20;;
74042;SDS011;62384;53.600;10.040;2023-03-03T02:36:40;40.97;;;14.13;;
74042;SDS011;62384;53.600;10.040;2023-03-03T02:39:10;66.95;;;15.85;;
74042;SDS011;62384;53.600;10.040;2023-03-03T02:41:54;44.22;;;14.05;;
74042;SDS011;62384;53.600;10.040;2023-03-03T02:44:25;41.63;;;14.13;;
74042;SDS011;62384;53.600;10.040;2023-03-03T02:46:52;43.28;;;13.40;;
74042;SDS011;62384;53.600;10.040;2023-03-03T02:49:20;57.40;;;15.10;;
74042;SDS011;62384;53.600;10.040;2023-03-03T02:51:47;38.90;;;12.98;;
74042;SDS011;62384;53.600;10.040;2023-03-03T02:54:12;36.30;;;12.82;;
74042;SDS011;62384;53.600;10.040;2023-03-03T02:56:39;42.90;;;12.23;;
74042;SDS011;62384;53.600;10.040;2023-03-03T02:59:04;32.72;;;12.10;;
74042;SDS011;62384;53.600;10.040;2023-03-03T03:01:29;51.42;;;12.32;;
74042;SDS011;62384;53.600;10.040;2023-03-03T03:04:02;27.98;;;11.77;;
74042;SDS011;62384;53.600;10.040;2023-03-03T03:06:31;30.63;;;11.40;;
74042;SDS011;62384;53.600;10.040;2023-03-03T03:08:56;39.83;;;13.25;;
74042;SDS011;62384;53.600;10.040;2023-03-03T03:11:21;42.70;;;12.68;;
74042;SDS011;62384;53.600;10.040;2023-03-03T03:13:46;47.80;;;13.40;;
74042;SDS011;62384;53.600;10.040;2023-03-03T03:16:12;31.20;;;11.95;;
74042;SDS011;62384;53.600;10.040;2023-03-03T03:18:37;52.53;;;12.07;;
74042;SDS011;62384;53.600;10.040;2023-03-03T03:21:09;34.10;;;12.23;;
74042;SDS011;62384;53.600;10.040;2023-03-03T03:23:36;29.52;;;12.35;;
74042;SDS011;62384;53.600;10.040;2023-03-03T03:26:01;32.70;;;11.85;;
74042;SDS011;62384;53.600;10.040;2023-03-03T03:28:27;31.55;;;12.27;;
74042;SDS011;62384;53.600;10.040;2023-03-03T03:30:52;38.00;;;13.10;;
74042;SDS011;62384;53.600;10.040;2023-03-03T03:33:17;27.70;;;11.20;;
74042;SDS011;62384;53.600;10.040;2023-03-03T03:35:43;46.85;;;14.77;;
74042;SDS011;62384;53.600;10.040;2023-03-03T03:38:11;40.10;;;13.07;;
74042;SDS011;62384;53.600;10.040;2023-03-03T03:40:36;32.08;;;10.82;;
74042;SDS011;62384;53.600;10.040;2023-03-03T03:43:01;39.65;;;12.80;;
74042;SDS011;62384;53.600;10.040;2023-03-03T03:45:28;28.95;;;11.82;;
74042;SDS011;62384;53.600;10.040;2023-03-03T03:47:53;39.28;;;11.95;;
74042;SDS011;62384;53.600;10.040;2023-03-03T03:50:19;28.42;;;11.77;;
74042;SDS011;62384;53.600;10.040;2023-03-03T03:52:44;29.90;;;10.88;;
74042;SDS011;62384;53.600;10.040;2023-03-03T03:55:10;34.03;;;12.13;;
74042;SDS011;62384;53.600;10.040;2023-03-03T03:57:36;28.58;;;11.43;;
74042;SDS011;62384;53.600;10.040;2023-03-03T04:00:01;34.88;;;11.88;;
74042;SDS011;62384;53.600;10.040;2023-03-03T04:02:27;52.38;;;12.95;;
74042;SDS011;62384;53.600;10.040;2023-03-03T04:04:52;40.63;;;12.48;;
74042;SDS011;62384;53.600;10.040;2023-03-03T04:07:18;45.13;;;12.02;;
74042;SDS011;62384;53.600;10.040;2023-03-03T04:09:43;48.40;;;13.50;;
74042;SDS011;62384;53.600;10.040;2023-03-03T04:12:08;33.28;;;12.35;;
74042;SDS011;62384;53.600;10.040;2023-03-03T04:14:33;48.40;;;12.90;;
74042;SDS011;62384;53.600;10.040;2023-03-03T04:16:58;41.30;;;12.68;;
74042;SDS011;62384;53.600;10.040;2023-03-03T04:19:24;50.50;;;13.95;;
74042;SDS011;62384;53.600;10.040;2023-03-03T04:21:49;49.03;;;12.27;;
74042;SDS011;62384;53.600;10.040;2023-03-03T04:24:15;36.80;;;11.82;;
74042;SDS011;62384;53.600;10.040;2023-03-03T04:26:40;29.75;;;11.40;;
74042;SDS011;62384;53.600;10.040;2023-03-03T04:29:06;33.53;;;11.40;;
74042;SDS011;62384;53.600;10.040;2023-03-03T04:31:31;32.60;;;11.63;;
74042;SDS011;62384;53.600;10.040;2023-03-03T04:33:56;30.95;;;12.45;;
74042;SDS011;62384;53.600;10.040;2023-03-03T04:36:22;27.25;;;11.68;;
74042;SDS011;62384;53.600;10.040;2023-03-03T04:38:47;26.75;;;10.35;;
74042;SDS011;62384;53.600;10.040;2023-03-03T04:41:13;27.45;;;11.68;;
74042;SDS011;62384;53.600;10.040;2023-03-03T04:43:39;28.58;;;10.35;;
74042;SDS011;62384;53.600;10.040;2023-03-03T04:46:04;28.75;;;11.35;;
74042;SDS011;62384;53.600;10.040;2023-03-03T04:48:29;27.30;;;11.55;;
74042;SDS011;62384;53.600;10.040;2023-03-03T04:51:01;42.08;;;13.07;;
74042;SDS011;62384;53.600;10.040;2023-03-03T04:55:52;37.92;;;12.07;;
74042;SDS011;62384;53.600;10.040;2023-03-03T04:58:18;27.95;;;11.27;;
74042;SDS011;62384;53.600;10.040;2023-03-03T05:00:52;34.42;;;12.18;;
74042;SDS011;62384;53.600;10.040;2023-03-03T05:03:20;29.90;;;12.65;;
74042;SDS011;62384;53.600;10.040;2023-03-03T05:05:46;31.40;;;11.90;;
74042;SDS011;62384;53.600;10.040;2023-03-03T05:08:11;31.70;;;11.93;;
74042;SDS011;62384;53.600;10.040;2023-03-03T05:10:37;31.67;;;12.05;;
74042;SDS011;62384;53.600;10.040;2023-03-03T05:13:03;34.30;;;12.38;;
74042;SDS011;62384;53.600;10.040;2023-03-03T05:15:30;35.33;;;12.38;;
74042;SDS011;62384;53.600;10.040;2023-03-03T05:17:55;28.58;;;11.02;;
74042;SDS011;62384;53.600;10.040;2023-03-03T05:20:21;28.48;;;11.50;;
74042;SDS011;62384;53.600;10.040;2023-03-03T05:22:46;30.08;;;11.55;;
74042;SDS011;62384;53.600;10.040;2023-03-03T05:25:12;27.52;;;10.50;;
74042;SDS011;62384;53.600;10.040;2023-03-03T05:27:37;45.20;;;11.25;;
74042;SDS011;62384;53.600;10.040;2023-03-03T05:30:02;34.45;;;11.40;;
74042;SDS011;62384;53.600;10.040;2023-03-03T05:32:28;37.78;;;12.60;;
74042;SDS011;62384;53.600;10.040;2023-03-03T05:34:54;59.95;;;11.75;;
74042;SDS011;62384;53.600;10.040;2023-03-03T05:37:19;29.70;;;12.05;;
74042;SDS011;62384;53.600;10.040;2023-03-03T05:39:44;28.52;;;12.10;;
74042;SDS011;62384;53.600;10.040;2023-03-03T05:42:13;35.35;;;12.18;;
74042;SDS011;62384;53.600;10.040;2023-03-03T05:44:38;31.17;;;12.38;;
74042;SDS011;62384;53.600;10.040;2023-03-03T05:47:04;26.20;;;11.63;;
74042;SDS011;62384;53.600;10.040;2023-03-03T05:49:29;44.70;;;13.38;;
74042;SDS011;62384;53.600;10.040;2023-03-03T05:51:54;27.58;;;11.70;;
74042;SDS011;62384;53.600;10.040;2023-03-03T05:54:19;39.75;;;12.15;;
74042;SDS011;62384;53.600;10.040;2023-03-03T05:56:45;45.40;;;12.32;;
74042;SDS011;62384;53.600;10.040;2023-03-03T05:59:10;28.20;;;11.13;;
74042;SDS011;62384;53.600;10.040;2023-03-03T06:01:35;57.25;;;13.02;;
74042;SDS011;62384;53.600;10.040;2023-03-03T06:04:01;38.38;;;12.32;;
74042;SDS011;62384;53.600;10.040;2023-03-03T06:06:26;30.73;;;10.85;;
74042;SDS011;62384;53.600;10.040;2023-03-03T06:08:52;28.13;;;11.38;;
74042;SDS011;62384;53.600;10.040;2023-03-03T06:11:18;28.90;;;11.43;;
74042;SDS011;62384;53.600;10.040;2023-03-03T06:13:43;36.72;;;10.82;;
74042;SDS011;62384;53.600;10.040;2023-03-03T06:16:09;35.97;;;10.90;;
74042;SDS011;62384;53.600;10.040;2023-03-03T06:18:34;28.95;;;11.38;;
74042;SDS011;62384;53.600;10.040;2023-03-03T06:21:00;25.35;;;9.65;;
74042;SDS011;62384;53.600;10.040;2023-03-03T06:23:25;32.88;;;11.75;;
74042;SDS011;62384;53.600;10.040;2023-03-03T06:25:51;31.60;;;11.73;;
74042;SDS011;62384;53.600;10.040;2023-03-03T06:28:17;33.55;;;11.68;;
74042;SDS011;62384;53.600;10.040;2023-03-03T06:30:42;31.92;;;10.88;;
74042;SDS011;62384;53.600;10.040;2023-03-03T06:33:07;29.25;;;11.52;;
74042;SDS011;62384;53.600;10.040;2023-03-03T06:35:33;30.63;;;11.32;;
74042;SDS011;62384;53.600;10.040;2023-03-03T06:37:58;32.00;;;11.65;;
74042;SDS011;62384;53.600;10.040;2023-03-03T06:40:23;35.15;;;11.18;;
74042;SDS011;62384;53.600;10.040;2023-03-03T06:42:48;41.85;;;11.75;;
74042;SDS011;62384;53.600;10.040;2023-03-03T06:45:14;36.42;;;10.95;;
74042;SDS011;62384;53.600;10.040;2023-03-03T06:47:40;24.48;;;10.93;;
74042;SDS011;62384;53.600;10.040;2023-03-03T06:50:06;27.33;;;10.55;;
74042;SDS011;62384;53.600;10.040;2023-03-03T06:52:34;33.22;;;11.52;;
74042;SDS011;62384;53.600;10.040;2023-03-03T06:54:59;34.92;;;10.93;;
74042;SDS011;62384;53.600;10.040;2023-03-03T06:57:33;27.80;;;11.02;;
74042;SDS011;62384;53.600;10.040;2023-03-03T07:00:44;31.88;;;11.00;;
74042;SDS011;62384;53.600;10.040;2023-03-03T07:03:10;27.13;;;11.05;;
74042;SDS011;62384;53.600;10.040;2023-03-03T07:05:39;26.23;;;10.75;;
74042;SDS011;62384;53.600;10.040;2023-03-03T07:08:15;23.48;;;10.63;;
74042;SDS011;62384;53.600;10.040;2023-03-03T07:10:42;26.30;;;9.77;;
74042;SDS011;62384;53.600;10.040;2023-03-03T07:15:42;24.40;;;9.73;;
74042;SDS011;62384;53.600;10.040;2023-03-03T07:18:33;24.75;;;9.57;;
74042;SDS011;62384;53.600;10.040;2023-03-03T07:20:59;31.80;;;10.00;;
74042;SDS011;62384;53.600;10.040;2023-03-03T07:23:40;22.42;;;9.10;;
74042;SDS011;62384;53.600;10.040;2023-03-03T07:26:19;22.75;;;8.15;;
74042;SDS011;62384;53.600;10.040;2023-03-03T07:28:54;16.45;;;7.88;;
74042;SDS011;62384;53.600;10.040;2023-03-03T07:31:34;33.60;;;9.13;;
74042;SDS011;62384;53.600;10.040;2023-03-03T07:34:19;21.17;;;8.80;;
74042;SDS011;62384;53.600;10.040;2023-03-03T07:36:53;48.22;;;8.77;;
74042;SDS011;62384;53.600;10.040;2023-03-03T07:45:02;23.45;;;8.30;;
74042;SDS011;62384;53.600;10.040;2023-03-03T07:47:46;34.53;;;9.27;;
74042;SDS011;62384;53.600;10.040;2023-03-03T07:50:13;31.17;;;9.15;;
74042;SDS011;62384;53.600;10.040;2023-03-03T07:52:53;24.23;;;8.82;;
74042;SDS011;62384;53.600;10.040;2023-03-03T07:55:35;26.90;;;8.50;;
74042;SDS011;62384;53.600;10.040;2023-03-03T08:03:48;44.60;;;8.73;;
74042;SDS011;62384;53.600;10.040;2023-03-03T08:06:34;24.80;;;7.70;;
74042;SDS011;62384;53.600;10.040;2023-03-03T08:09:02;25.85;;;8.35;;
74042;SDS011;62384;53.600;10.040;2023-03-03T08:11:54;33.05;;;9.27;;
74042;SDS011;62384;53.600;10.040;2023-03-03T08:14:42;30.05;;;7.95;;
74042;SDS011;62384;53.600;10.040;2023-03-03T08:17:16;20.27;;;8.82;;
74042;SDS011;62384;53.600;10.040;2023-03-03T08:19:47;23.05;;;9.55;;
74042;SDS011;62384;53.600;10.040;2023-03-03T08:22:28;25.58;;;8.32;;
74042;SDS011;62384;53.600;10.040;2023-03-03T08:24:57;12.75;;;6.93;;
74042;SDS011;62384;53.600;10.040;2023-03-03T08:27:22;16.80;;;6.60;;
74042;SDS011;62384;53.600;10.040;2023-03-03T08:29:47;20.58;;;7.43;;
74042;SDS011;62384;53.600;10.040;2023-03-03T08:32:14;25.83;;;8.63;;
74042;SDS011;62384;53.600;10.040;2023-03-03T08:34:39;22.95;;;6.85;;
74042;SDS011;62384;53.600;10.040;2023-03-03T08:37:05;17.10;;;6.80;;
74042;SDS011;62384;53.600;10.040;2023-03-03T08:39:30;22.58;;;8.32;;
74042;SDS011;62384;53.600;10.040;2023-03-03T08:41:55;17.67;;;7.03;;
74042;SDS011;62384;53.600;10.040;2023-03-03T08:44:21;22.58;;;7.05;;
74042;SDS011;62384;53.600;10.040;2023-03-03T08:46:46;19.90;;;8.05;;
74042;SDS011;62384;53.600;10.040;2023-03-03T08:49:12;32.40;;;7.50;;
74042;SDS011;62384;53.600;10.040;2023-03-03T08:51:37;24.27;;;7.20;;
74042;SDS011;62384;53.600;10.040;2023-03-03T08:54:02;22.13;;;7.75;;
74042;SDS011;62384;53.600;10.040;2023-03-03T08:56:28;22.40;;;7.65;;
74042;SDS011;62384;53.600;10.040;2023-03-03T08:58:53;13.30;;;6.60;;
74042;SDS011;62384;53.600;10.040;2023-03-03T09:01:18;16.58;;;6.97;;
74042;SDS011;62384;53.600;10.040;2023-03-03T09:03:44;12.02;;;5.95;;
74042;SDS011;62384;53.600;10.040;2023-03-03T09:06:09;14.80;;;7.20;;
74042;SDS011;62384;53.600;10.040;2023-03-03T09:08:35;17.98;;;6.57;;
74042;SDS011;62384;53.600;10.040;2023-03-03T09:11:00;12.65;;;5.10;;
74042;SDS011;62384;53.600;10.040;2023-03-03T09:13:26;12.77;;;5.93;;
74042;SDS011;62384;53.600;10.040;2023-03-03T09:15:53;13.27;;;5.65;;
74042;SDS011;62384;53.600;10.040;2023-03-03T09:18:21;12.70;;;5.55;;
74042;SDS011;62384;53.600;10.040;2023-03-03T09:20:55;14.27;;;6.10;;
74042;SDS011;62384;53.600;10.040;2023-03-03T09:25:52;12.75;;;5.68;;
74042;SDS011;62384;53.600;10.040;2023-03-03T09:30:50;12.10;;;5.63;;
74042;SDS011;62384;53.600;10.040;2023-03-03T09:33:22;12.75;;;5.65;;
74042;SDS011;62384;53.600;10.040;2023-03-03T09:35:50;14.93;;;4.95;;
74042;SDS011;62384;53.600;10.040;2023-03-03T09:38:24;12.38;;;6.13;;
74042;SDS011;62384;53.600;10.040;2023-03-03T09:44:00;11.88;;;5.40;;
74042;SDS011;62384;53.600;10.040;2023-03-03T09:49:35;13.70;;;6.28;;
74042;SDS011;62384;53.600;10.040;2023-03-03T09:55:22;12.77;;;6.03;;
74042;SDS011;62384;53.600;10.040;2023-03-03T09:58:16;11.25;;;5.50;;
74042;SDS011;62384;53.600;10.040;2023-03-03T10:01:09;12.82;;;5.63;;
74042;SDS011;62384;53.600;10.040;2023-03-03T10:09:37;11.82;;;5.97;;
74042;SDS011;62384;53.600;10.040;2023-03-03T10:12:26;14.60;;;6.20;;
74042;SDS011;62384;53.600;10.040;2023-03-03T10:17:44;24.88;;;8.05;;
74042;SDS011;62384;53.600;10.040;2023-03-03T10:23:17;18.92;;;6.70;;
74042;SDS011;62384;53.600;10.040;2023-03-03T10:25:49;21.50;;;8.18;;
74042;SDS011;62384;53.600;10.040;2023-03-03T10:37:06;31.63;;;10.25;;
74042;SDS011;62384;53.600;10.040;2023-03-03T10:42:17;27.65;;;10.40;;
74042;SDS011;62384;53.600;10.040;2023-03-03T10:44:53;29.05;;;9.88;;
74042;SDS011;62384;53.600;10.040;2023-03-03T10:50:23;24.50;;;9.10;;
74042;SDS011;62384;53.600;10.040;2023-03-03T10:53:13;24.20;;;9.13;;
74042;SDS011;62384;53.600;10.040;2023-03-03T11:01:04;19.67;;;8.13;;
74042;SDS011;62384;53.600;10.040;2023-03-03T11:04:02;18.08;;;7.70;;
74042;SDS011;62384;53.600;10.040;2023-03-03T11:06:45;25.55;;;8.68;;
74042;SDS011;62384;53.600;10.040;2023-03-03T11:20:11;18.52;;;7.35;;
74042;SDS011;62384;53.600;10.040;2023-03-03T11:23:41;17.13;;;7.47;;
74042;SDS011;62384;53.600;10.040;2023-03-03T11:25:57;24.83;;;8.82;;
74042;SDS011;62384;53.600;10.040;2023-03-03T11:36:38;25.20;;;9.82;;
74042;SDS011;62384;53.600;10.040;2023-03-03T11:39:10;21.98;;;9.48;;
74042;SDS011;62384;53.600;10.040;2023-03-03T11:44:49;25.73;;;9.57;;
74042;SDS011;62384;53.600;10.040;2023-03-03T11:56:00;24.83;;;9.27;;
74042;SDS011;62384;53.600;10.040;2023-03-03T11:58:41;20.38;;;8.93;;
74042;SDS011;62384;53.600;10.040;2023-03-03T12:01:22;19.45;;;8.88;;
74042;SDS011;62384;53.600;10.040;2023-03-03T12:04:00;24.88;;;9.43;;
74042;SDS011;62384;53.600;10.040;2023-03-03T12:15:01;24.23;;;8.82;;
74042;SDS011;62384;53.600;10.040;2023-03-03T12:28:49;22.85;;;7.95;;
74042;SDS011;62384;53.600;10.040;2023-03-03T12:31:21;20.02;;;8.00;;
74042;SDS011;62384;53.600;10.040;2023-03-03T12:34:56;16.88;;;7.15;;
74042;SDS011;62384;53.600;10.040;2023-03-03T12:37:30;17.02;;;6.60;;
74042;SDS011;62384;53.600;10.040;2023-03-03T12:40:13;18.00;;;6.53;;
74042;SDS011;62384;53.600;10.040;2023-03-03T12:42:58;13.20;;;5.85;;
74042;SDS011;62384;53.600;10.040;2023-03-03T12:45:39;15.95;;;5.32;;
74042;SDS011;62384;53.600;10.040;2023-03-03T12:48:20;18.05;;;7.05;;
74042;SDS011;62384;53.600;10.040;2023-03-03T12:50:54;12.25;;;5.30;;
74042;SDS011;62384;53.600;10.040;2023-03-03T12:53:33;17.05;;;5.70;;
74042;SDS011;62384;53.600;10.040;2023-03-03T12:56:07;19.52;;;5.95;;
74042;SDS011;62384;53.600;10.040;2023-03-03T12:58:49;13.70;;;5.00;;
74042;SDS011;62384;53.600;10.040;2023-03-03T13:01:34;13.88;;;5.20;;
74042;SDS011;62384;53.600;10.040;2023-03-03T13:06:58;12.95;;;4.47;;
74042;SDS011;62384;53.600;10.040;2023-03-03T13:09:44;17.55;;;5.45;;
74042;SDS011;62384;53.600;10.040;2023-03-03T13:20:50;7.63;;;3.33;;
74042;SDS011;62384;53.600;10.040;2023-03-03T13:26:35;4.82;;;2.50;;
74042;SDS011;62384;53.600;10.040;2023-03-03T13:29:08;8.57;;;2.67;;
74042;SDS011;62384;53.600;10.040;2023-03-03T13:31:42;6.60;;;2.55;;
74042;SDS011;62384;53.600;10.040;2023-03-03T13:37:04;5.28;;;2.70;;
74042;SDS011;62384;53.600;10.040;2023-03-03T13:39:53;8.45;;;1.58;;
74042;SDS011;62384;53.600;10.040;2023-03-03T13:43:07;7.22;;;1.92;;
74042;SDS011;62384;53.600;10.040;2023-03-03T13:45:16;4.60;;;1.30;;
74042;SDS011;62384;53.600;10.040;2023-03-03T13:47:46;2.88;;;1.02;;
74042;SDS011;62384;53.600;10.040;2023-03-03T13:50:19;2.22;;;1.05;;
74042;SDS011;62384;53.600;10.040;2023-03-03T13:53:01;2.25;;;1.38;;
74042;SDS011;62384;53.600;10.040;2023-03-03T13:55:42;3.65;;;1.33;;
74042;SDS011;62384;53.600;10.040;2023-03-03T13:58:14;3.47;;;1.13;;
74042;SDS011;62384;53.600;10.040;2023-03-03T14:01:00;1.80;;;1.00;;
74042;SDS011;62384;53.600;10.040;2023-03-03T14:06:16;10.40;;;1.20;;
74042;SDS011;62384;53.600;10.040;2023-03-03T14:09:00;4.05;;;0.93;;
74042;SDS011;62384;53.600;10.040;2023-03-03T14:12:03;3.88;;;0.88;;
74042;SDS011;62384;53.600;10.040;2023-03-03T14:14:40;2.85;;;1.20;;
74042;SDS011;62384;53.600;10.040;2023-03-03T14:17:16;2.92;;;1.67;;
74042;SDS011;62384;53.600;10.040;2023-03-03T14:19:56;4.88;;;1.08;;
74042;SDS011;62384;53.600;10.040;2023-03-03T14:22:44;4.35;;;0.93;;
74042;SDS011;62384;53.600;10.040;2023-03-03T14:25:16;5.70;;;0.70;;
74042;SDS011;62384;53.600;10.040;2023-03-03T14:30:26;2.85;;;0.60;;
74042;SDS011;62384;53.600;10.040;2023-03-03T14:33:00;4.88;;;1.35;;
74042;SDS011;62384;53.600;10.040;2023-03-03T14:35:31;2.50;;;0.63;;
74042;SDS011;62384;53.600;10.040;2023-03-03T14:38:11;3.17;;;0.68;;
74042;SDS011;62384;53.600;10.040;2023-03-03T14:40:39;2.55;;;1.00;;
74042;SDS011;62384;53.600;10.040;2023-03-03T14:43:21;2.40;;;1.02;;
74042;SDS011;62384;53.600;10.040;2023-03-03T14:45:51;2.63;;;0.90;;
74042;SDS011;62384;53.600;10.040;2023-03-03T14:48:19;1.88;;;0.88;;
74042;SDS011;62384;53.600;10.040;2023-03-03T14:50:52;3.40;;;1.00;;
74042;SDS011;62384;53.600;10.040;2023-03-03T14:53:29;1.83;;;0.77;;
74042;SDS011;62384;53.600;10.040;2023-03-03T14:56:13;4.78;;;1.15;;
74042;SDS011;62384;53.600;10.040;2023-03-03T14:58:50;3.85;;;0.70;;
74042;SDS011;62384;53.600;10.040;2023-03-03T15:04:01;4.22;;;0.80;;
74042;SDS011;62384;53.600;10.040;2023-03-03T15:06:44;8.82;;;1.02;;
74042;SDS011;62384;53.600;10.040;2023-03-03T15:17:39;4.25;;;0.90;;
74042;SDS011;62384;53.600;10.040;2023-03-03T15:23:12;1.90;;;0.95;;
74042;SDS011;62384;53.600;10.040;2023-03-03T15:25:46;8.75;;;1.52;;
74042;SDS011;62384;53.600;10.040;2023-03-03T15:28:25;3.95;;;0.93;;
74042;SDS011;62384;53.600;10.040;2023-03-03T15:40:04;8.18;;;1.40;;
74042;SDS011;62384;53.600;10.040;2023-03-03T15:51:02;9.63;;;1.52;;
74042;SDS011;62384;53.600;10.040;2023-03-03T15:56:26;5.03;;;1.40;;
74042;SDS011;62384;53.600;10.040;2023-03-03T16:04:23;9.13;;;1.80;;
74042;SDS011;62384;53.600;10.040;2023-03-03T16:06:54;11.23;;;1.95;;
74042;SDS011;62384;53.600;10.040;2023-03-03T16:09:33;13.18;;;1.77;;
74042;SDS011;62384;53.600;10.040;2023-03-03T16:15:29;4.68;;;1.50;;
74042;SDS011;62384;53.600;10.040;2023-03-03T16:20:56;8.35;;;1.67;;
74042;SDS011;62384;53.600;10.040;2023-03-03T16:23:45;8.15;;;1.50;;
74042;SDS011;62384;53.600;10.040;2023-03-03T16:26:23;5.70;;;1.45;;
74042;SDS011;62384;53.600;10.040;2023-03-03T16:29:27;4.82;;;1.45;;
74042;SDS011;62384;53.600;10.040;2023-03-03T16:32:31;10.85;;;1.30;;
74042;SDS011;62384;53.600;10.040;2023-03-03T16:35:23;12.98;;;1.73;;
74042;SDS011;62384;53.600;10.040;2023-03-03T16:45:38;7.40;;;1.83;;
74042;SDS011;62384;53.600;10.040;2023-03-03T16:48:18;3.90;;;1.95;;
74042;SDS011;62384;53.600;10.040;2023-03-03T16:56:21;7.85;;;1.80;;
74042;SDS011;62384;53.600;10.040;2023-03-03T17:02:05;8.32;;;2.08;;
74042;SDS011;62384;53.600;10.040;2023-03-03T17:10:28;12.73;;;2.47;;
74042;SDS011;62384;53.600;10.040;2023-03-03T17:15:50;5.57;;;1.45;;
74042;SDS011;62384;53.600;10.040;2023-03-03T17:19:03;10.90;;;1.80;;
74042;SDS011;62384;53.600;10.040;2023-03-03T17:21:19;9.30;;;2.17;;
74042;SDS011;62384;53.600;10.040;2023-03-03T17:26:22;12.40;;;1.98;;
74042;SDS011;62384;53.600;10.040;2023-03-03T17:35:01;10.98;;;1.88;;
74042;SDS011;62384;53.600;10.040;2023-03-03T17:43:33;10.07;;;1.70;;
74042;SDS011;62384;53.600;10.040;2023-03-03T17:46:03;15.18;;;2.03;;
74042;SDS011;62384;53.600;10.040;2023-03-03T17:48:40;13.73;;;2.70;;
74042;SDS011;62384;53.600;10.040;2023-03-03T17:51:23;12.48;;;1.95;;
74042;SDS011;62384;53.600;10.040;2023-03-03T17:53:59;10.27;;;1.92;;
74042;SDS011;62384;53.600;10.040;2023-03-03T17:56:37;11.48;;;1.85;;
74042;SDS011;62384;53.600;10.040;2023-03-03T18:07:41;14.98;;;2.72;;
74042;SDS011;62384;53.600;10.040;2023-03-03T18:10:29;9.88;;;2.47;;
74042;SDS011;62384;53.600;10.040;2023-03-03T18:18:51;12.77;;;2.63;;
74042;SDS011;62384;53.600;10.040;2023-03-03T18:26:50;12.02;;;2.13;;
74042;SDS011;62384;53.600;10.040;2023-03-03T18:29:26;16.83;;;2.85;;
74042;SDS011;62384;53.600;10.040;2023-03-03T18:37:32;9.80;;;2.60;;
74042;SDS011;62384;53.600;10.040;2023-03-03T18:44:54;11.40;;;2.35;;
74042;SDS011;62384;53.600;10.040;2023-03-03T18:47:20;14.25;;;2.65;;
74042;SDS011;62384;53.600;10.040;2023-03-03T18:50:32;13.52;;;2.42;;
74042;SDS011;62384;53.600;10.040;2023-03-03T18:55:46;13.32;;;3.00;;
74042;SDS011;62384;53.600;10.040;2023-03-03T19:05:48;20.73;;;2.78;;
74042;SDS011;62384;53.600;10.040;2023-03-03T19:08:26;13.10;;;3.20;;
74042;SDS011;62384;53.600;10.040;2023-03-03T19:10:55;12.13;;;2.55;;
74042;SDS011;62384;53.600;10.040;2023-03-03T19:21:18;15.18;;;3.42;;
74042;SDS011;62384;53.600;10.040;2023-03-03T19:23:45;15.63;;;2.85;;
74042;SDS011;62384;53.600;10.040;2023-03-03T19:28:56;24.05;;;3.22;;
74042;SDS011;62384;53.600;10.040;2023-03-03T19:34:23;18.98;;;2.92;;
74042;SDS011;62384;53.600;10.040;2023-03-03T19:40:07;19.83;;;3.55;;